sensor_id;sensor_type;location;lat;lon;timestamp;temperature;humidity
63013;DHT22;62113;45.624;11.700;2023-01-24T00:00:51;9.80;67.10
63013;DHT22;62113;45.624;11.700;2023-01-24T00:03:17;9.80;67.10
63013;DHT22;62113;45.624;11.700;2023-01-24T00:05:44;9.80;67.10
63013;DHT22;62113;45.624;11.700;2023-01-24T00:08:14;9.80;67.40
63013;DHT22;62113;45.624;11.700;2023-01-24T00:10:40;9.80;67.50
63013;DHT22;62113;45.624;11.700;2023-01-24T00:13:07;9.80;67.70
63013;DHT22;62113;45.624;11.700;2023-01-24T00:15:35;9.80;67.50
63013;DHT22;62113;45.624;11.700;2023-01-24T00:18:00;9.80;67.70
63013;DHT22;62113;45.624;11.700;2023-01-24T00:20:26;9.80;67.70
63013;DHT22;62113;45.624;11.700;2023-01-24T00:22:52;9.80;67.80
63013;DHT22;62113;45.624;11.700;2023-01-24T00:25:17;9.80;68.40
63013;DHT22;62113;45.624;11.700;2023-01-24T00:27:43;9.70;68.40
63013;DHT22;62113;45.624;11.700;2023-01-24T00:30:09;9.80;68.40
63013;DHT22;62113;45.624;11.700;2023-01-24T00:32:35;9.70;68.50
63013;DHT22;62113;45.624;11.700;2023-01-24T00:35:01;9.70;68.50
63013;DHT22;62113;45.624;11.700;2023-01-24T00:37:27;9.80;68.60
63013;DHT22;62113;45.624;11.700;2023-01-24T00:39:52;9.70;68.50
63013;DHT22;62113;45.624;11.700;2023-01-24T00:42:18;9.70;68.50
63013;DHT22;62113;45.624;11.700;2023-01-24T00:44:43;9.70;68.60
63013;DHT22;62113;45.624;11.700;2023-01-24T00:47:09;9.70;68.60
63013;DHT22;62113;45.624;11.700;2023-01-24T00:49:35;9.70;68.60
63013;DHT22;62113;45.624;11.700;2023-01-24T00:52:00;9.70;68.70
63013;DHT22;62113;45.624;11.700;2023-01-24T00:54:27;9.70;68.50
63013;DHT22;62113;45.624;11.700;2023-01-24T00:56:52;9.70;68.50
63013;DHT22;62113;45.624;11.700;2023-01-24T00:59:18;9.70;68.50
63013;DHT22;62113;45.624;11.700;2023-01-24T01:01:44;9.70;68.40
63013;DHT22;62113;45.624;11.700;2023-01-24T01:04:10;9.70;68.50
63013;DHT22;62113;45.624;11.700;2023-01-24T01:06:36;9.60;68.50
63013;DHT22;62113;45.624;11.700;2023-01-24T01:09:01;9.60;68.50
63013;DHT22;62113;45.624;11.700;2023-01-24T01:11:27;9.50;68.50
63013;DHT22;62113;45.624;11.700;2023-01-24T01:13:56;9.60;68.60
63013;DHT22;62113;45.624;11.700;2023-01-24T01:16:23;9.50;68.50
63013;DHT22;62113;45.624;11.700;2023-01-24T01:18:52;9.50;68.70
63013;DHT22;62113;45.624;11.700;2023-01-24T01:21:19;9.40;68.60
63013;DHT22;62113;45.624;11.700;2023-01-24T01:23:45;9.40;68.60
63013;DHT22;62113;45.624;11.700;2023-01-24T01:26:16;9.40;68.60
63013;DHT22;62113;45.624;11.700;2023-01-24T01:28:42;9.30;68.60
63013;DHT22;62113;45.624;11.700;2023-01-24T01:31:08;9.30;68.50
63013;DHT22;62113;45.624;11.700;2023-01-24T01:33:33;9.30;68.60
63013;DHT22;62113;45.624;11.700;2023-01-24T01:35:59;9.30;68.60
63013;DHT22;62113;45.624;11.700;2023-01-24T01:38:25;9.20;68.60
63013;DHT22;62113;45.624;11.700;2023-01-24T01:40:53;9.20;68.80
63013;DHT22;62113;45.624;11.700;2023-01-24T01:43:24;9.20;68.70
63013;DHT22;62113;45.624;11.700;2023-01-24T01:45:52;9.10;68.80
63013;DHT22;62113;45.624;11.700;2023-01-24T01:53:57;9.00;68.90
63013;DHT22;62113;45.624;11.700;2023-01-24T01:56:50;9.00;69.10
63013;DHT22;62113;45.624;11.700;2023-01-24T01:59:20;9.00;69.00
63013;DHT22;62113;45.624;11.700;2023-01-24T02:01:48;9.00;69.00
63013;DHT22;62113;45.624;11.700;2023-01-24T02:04:19;9.00;69.30
63013;DHT22;62113;45.624;11.700;2023-01-24T02:09:33;8.90;69.30
63013;DHT22;62113;45.624;11.700;2023-01-24T02:12:03;8.90;69.40
63013;DHT22;62113;45.624;11.700;2023-01-24T02:14:30;8.90;69.60
63013;DHT22;62113;45.624;11.700;2023-01-24T02:17:19;8.90;69.40
63013;DHT22;62113;45.624;11.700;2023-01-24T02:22:57;8.90;69.40
63013;DHT22;62113;45.624;11.700;2023-01-24T02:28:31;8.90;69.60
63013;DHT22;62113;45.624;11.700;2023-01-24T02:30:58;8.90;69.60
63013;DHT22;62113;45.624;11.700;2023-01-24T02:33:24;8.90;69.80
63013;DHT22;62113;45.624;11.700;2023-01-24T02:35:50;8.80;69.60
63013;DHT22;62113;45.624;11.700;2023-01-24T02:38:25;8.80;69.60
63013;DHT22;62113;45.624;11.700;2023-01-24T02:40:57;8.80;69.40
63013;DHT22;62113;45.624;11.700;2023-01-24T02:43:34;8.70;69.40
63013;DHT22;62113;45.624;11.700;2023-01-24T02:46:01;8.70;69.50
63013;DHT22;62113;45.624;11.700;2023-01-24T02:48:27;8.70;69.50
63013;DHT22;62113;45.624;11.700;2023-01-24T02:50:52;8.70;69.60
63013;DHT22;62113;45.624;11.700;2023-01-24T02:53:37;8.70;69.60
63013;DHT22;62113;45.624;11.700;2023-01-24T02:56:07;8.70;69.60
63013;DHT22;62113;45.624;11.700;2023-01-24T02:58:51;8.70;69.80
63013;DHT22;62113;45.624;11.700;2023-01-24T03:01:18;8.70;69.90
63013;DHT22;62113;45.624;11.700;2023-01-24T03:03:44;8.60;69.80
63013;DHT22;62113;45.624;11.700;2023-01-24T03:06:10;8.60;70.00
63013;DHT22;62113;45.624;11.700;2023-01-24T03:08:37;8.60;69.80
63013;DHT22;62113;45.624;11.700;2023-01-24T03:11:04;8.60;69.90
63013;DHT22;62113;45.624;11.700;2023-01-24T03:13:30;8.50;70.00
63013;DHT22;62113;45.624;11.700;2023-01-24T03:16:14;8.50;70.10
63013;DHT22;62113;45.624;11.700;2023-01-24T03:18:59;8.50;70.20
63013;DHT22;62113;45.624;11.700;2023-01-24T03:21:44;8.50;70.00
63013;DHT22;62113;45.624;11.700;2023-01-24T03:24:29;8.50;70.00
63013;DHT22;62113;45.624;11.700;2023-01-24T03:27:13;8.50;70.10
63013;DHT22;62113;45.624;11.700;2023-01-24T03:29:58;8.50;70.00
63013;DHT22;62113;45.624;11.700;2023-01-24T03:32:42;8.50;70.00
63013;DHT22;62113;45.624;11.700;2023-01-24T03:35:26;8.40;70.00
63013;DHT22;62113;45.624;11.700;2023-01-24T03:37:52;8.40;70.00
63013;DHT22;62113;45.624;11.700;2023-01-24T03:40:37;8.30;70.00
63013;DHT22;62113;45.624;11.700;2023-01-24T03:43:03;8.30;69.90
63013;DHT22;62113;45.624;11.700;2023-01-24T03:45:31;8.40;70.00
63013;DHT22;62113;45.624;11.700;2023-01-24T03:48:02;8.30;69.90
63013;DHT22;62113;45.624;11.700;2023-01-24T03:50:33;8.30;69.90
63013;DHT22;62113;45.624;11.700;2023-01-24T03:53:19;8.30;69.70
63013;DHT22;62113;45.624;11.700;2023-01-24T03:55:46;8.30;69.70
63013;DHT22;62113;45.624;11.700;2023-01-24T03:58:13;8.20;69.80
63013;DHT22;62113;45.624;11.700;2023-01-24T04:00:39;8.20;69.70
63013;DHT22;62113;45.624;11.700;2023-01-24T04:03:05;8.20;69.80
63013;DHT22;62113;45.624;11.700;2023-01-24T04:05:34;8.20;69.80
63013;DHT22;62113;45.624;11.700;2023-01-24T04:08:00;8.10;69.80
63013;DHT22;62113;45.624;11.700;2023-01-24T04:10:26;8.10;69.90
63013;DHT22;62113;45.624;11.700;2023-01-24T04:12:53;8.10;69.90
63013;DHT22;62113;45.624;11.700;2023-01-24T04:15:25;8.10;69.90
63013;DHT22;62113;45.624;11.700;2023-01-24T04:17:54;8.10;70.00
63013;DHT22;62113;45.624;11.700;2023-01-24T04:20:22;8.10;70.00
63013;DHT22;62113;45.624;11.700;2023-01-24T04:22:48;8.00;69.80
63013;DHT22;62113;45.624;11.700;2023-01-24T04:25:13;8.00;69.80
63013;DHT22;62113;45.624;11.700;2023-01-24T04:27:40;8.00;69.80
63013;DHT22;62113;45.624;11.700;2023-01-24T04:30:09;8.00;69.80
63013;DHT22;62113;45.624;11.700;2023-01-24T04:32:35;7.90;69.80
63013;DHT22;62113;45.624;11.700;2023-01-24T04:35:01;8.00;69.80
63013;DHT22;62113;45.624;11.700;2023-01-24T04:37:29;7.90;69.80
63013;DHT22;62113;45.624;11.700;2023-01-24T04:39:55;7.90;69.80
63013;DHT22;62113;45.624;11.700;2023-01-24T04:42:20;7.90;69.90
63013;DHT22;62113;45.624;11.700;2023-01-24T04:44:46;7.90;69.90
63013;DHT22;62113;45.624;11.700;2023-01-24T04:47:12;7.90;69.90
63013;DHT22;62113;45.624;11.700;2023-01-24T04:49:38;7.90;69.80
63013;DHT22;62113;45.624;11.700;2023-01-24T04:52:04;7.90;69.70
63013;DHT22;62113;45.624;11.700;2023-01-24T04:54:29;7.90;69.70
63013;DHT22;62113;45.624;11.700;2023-01-24T04:56:55;7.80;69.60
63013;DHT22;62113;45.624;11.700;2023-01-24T04:59:21;7.80;69.60
63013;DHT22;62113;45.624;11.700;2023-01-24T05:01:46;7.70;69.70
63013;DHT22;62113;45.624;11.700;2023-01-24T05:04:12;7.70;69.70
63013;DHT22;62113;45.624;11.700;2023-01-24T05:06:38;7.70;69.70
63013;DHT22;62113;45.624;11.700;2023-01-24T05:09:04;7.70;69.80
63013;DHT22;62113;45.624;11.700;2023-01-24T05:11:29;7.70;69.80
63013;DHT22;62113;45.624;11.700;2023-01-24T05:13:55;7.60;69.80
63013;DHT22;62113;45.624;11.700;2023-01-24T05:16:21;7.60;69.90
63013;DHT22;62113;45.624;11.700;2023-01-24T05:18:46;7.60;69.90
63013;DHT22;62113;45.624;11.700;2023-01-24T05:21:17;7.50;69.90
63013;DHT22;62113;45.624;11.700;2023-01-24T05:23:48;7.50;69.90
63013;DHT22;62113;45.624;11.700;2023-01-24T05:26:14;7.50;70.00
63013;DHT22;62113;45.624;11.700;2023-01-24T05:28:40;7.50;70.00
63013;DHT22;62113;45.624;11.700;2023-01-24T05:31:06;7.40;70.10
63013;DHT22;62113;45.624;11.700;2023-01-24T05:33:34;7.40;70.10
63013;DHT22;62113;45.624;11.700;2023-01-24T05:36:05;7.50;70.20
63013;DHT22;62113;45.624;11.700;2023-01-24T05:38:31;7.40;70.10
63013;DHT22;62113;45.624;11.700;2023-01-24T05:41:05;7.40;70.20
63013;DHT22;62113;45.624;11.700;2023-01-24T05:43:31;7.40;70.10
63013;DHT22;62113;45.624;11.700;2023-01-24T05:46:02;7.30;70.00
63013;DHT22;62113;45.624;11.700;2023-01-24T05:48:28;7.30;70.00
63013;DHT22;62113;45.624;11.700;2023-01-24T05:51:05;7.30;70.10
63013;DHT22;62113;45.624;11.700;2023-01-24T05:53:33;7.20;70.10
63013;DHT22;62113;45.624;11.700;2023-01-24T05:56:01;7.20;70.10
63013;DHT22;62113;45.624;11.700;2023-01-24T05:58:28;7.20;70.10
63013;DHT22;62113;45.624;11.700;2023-01-24T06:00:55;7.20;70.10
63013;DHT22;62113;45.624;11.700;2023-01-24T06:03:22;7.20;70.10
63013;DHT22;62113;45.624;11.700;2023-01-24T06:05:50;7.20;70.10
63013;DHT22;62113;45.624;11.700;2023-01-24T06:08:16;7.10;70.10
63013;DHT22;62113;45.624;11.700;2023-01-24T06:10:42;7.10;70.10
63013;DHT22;62113;45.624;11.700;2023-01-24T06:13:09;7.10;70.10
63013;DHT22;62113;45.624;11.700;2023-01-24T06:15:35;7.10;70.20
63013;DHT22;62113;45.624;11.700;2023-01-24T06:18:01;7.10;70.20
63013;DHT22;62113;45.624;11.700;2023-01-24T06:20:27;7.00;70.20
63013;DHT22;62113;45.624;11.700;2023-01-24T06:22:56;7.00;70.20
63013;DHT22;62113;45.624;11.700;2023-01-24T06:25:24;7.00;70.20
63013;DHT22;62113;45.624;11.700;2023-01-24T06:27:51;7.00;70.20
63013;DHT22;62113;45.624;11.700;2023-01-24T06:30:18;7.00;70.20
63013;DHT22;62113;45.624;11.700;2023-01-24T06:33:01;7.00;70.20
63013;DHT22;62113;45.624;11.700;2023-01-24T06:35:36;7.00;70.30
63013;DHT22;62113;45.624;11.700;2023-01-24T06:40:43;7.00;70.20
63013;DHT22;62113;45.624;11.700;2023-01-24T06:43:08;6.90;70.10
63013;DHT22;62113;45.624;11.700;2023-01-24T06:45:34;6.90;70.10
63013;DHT22;62113;45.624;11.700;2023-01-24T06:48:00;6.90;70.20
63013;DHT22;62113;45.624;11.700;2023-01-24T06:50:25;6.80;70.20
63013;DHT22;62113;45.624;11.700;2023-01-24T06:52:54;6.90;70.30
63013;DHT22;62113;45.624;11.700;2023-01-24T06:55:20;6.90;70.30
63013;DHT22;62113;45.624;11.700;2023-01-24T06:57:46;6.90;70.40
63013;DHT22;62113;45.624;11.700;2023-01-24T07:00:13;7.00;70.40
63013;DHT22;62113;45.624;11.700;2023-01-24T07:02:39;7.00;70.40
63013;DHT22;62113;45.624;11.700;2023-01-24T07:05:04;7.00;70.40
63013;DHT22;62113;45.624;11.700;2023-01-24T07:07:30;7.10;70.10
63013;DHT22;62113;45.624;11.700;2023-01-24T07:09:56;7.10;70.10
63013;DHT22;62113;45.624;11.700;2023-01-24T07:12:21;7.10;69.90
63013;DHT22;62113;45.624;11.700;2023-01-24T07:14:47;7.20;69.80
63013;DHT22;62113;45.624;11.700;2023-01-24T07:17:14;7.20;69.80
63013;DHT22;62113;45.624;11.700;2023-01-24T07:19:39;7.20;69.80
63013;DHT22;62113;45.624;11.700;2023-01-24T07:22:10;7.40;69.90
63013;DHT22;62113;45.624;11.700;2023-01-24T07:24:36;7.50;69.50
63013;DHT22;62113;45.624;11.700;2023-01-24T07:27:02;7.50;69.50
63013;DHT22;62113;45.624;11.700;2023-01-24T07:29:27;7.50;69.50
63013;DHT22;62113;45.624;11.700;2023-01-24T07:31:53;7.70;69.40
63013;DHT22;62113;45.624;11.700;2023-01-24T07:34:19;7.70;69.40
63013;DHT22;62113;45.624;11.700;2023-01-24T07:36:45;7.80;69.30
63013;DHT22;62113;45.624;11.700;2023-01-24T07:39:11;7.80;69.20
63013;DHT22;62113;45.624;11.700;2023-01-24T07:41:37;8.00;69.20
63013;DHT22;62113;45.624;11.700;2023-01-24T07:44:04;8.40;69.00
63013;DHT22;62113;45.624;11.700;2023-01-24T07:46:32;9.10;68.20
63013;DHT22;62113;45.624;11.700;2023-01-24T07:48:58;10.00;66.10
63013;DHT22;62113;45.624;11.700;2023-01-24T07:51:23;10.80;63.20
63013;DHT22;62113;45.624;11.700;2023-01-24T07:53:49;11.60;61.20
63013;DHT22;62113;45.624;11.700;2023-01-24T07:56:15;12.10;59.90
63013;DHT22;62113;45.624;11.700;2023-01-24T07:58:42;12.40;58.70
63013;DHT22;62113;45.624;11.700;2023-01-24T08:01:07;12.70;57.50
63013;DHT22;62113;45.624;11.700;2023-01-24T08:03:33;12.80;56.60
63013;DHT22;62113;45.624;11.700;2023-01-24T08:05:59;13.00;56.30
63013;DHT22;62113;45.624;11.700;2023-01-24T08:08:24;13.00;56.20
63013;DHT22;62113;45.624;11.700;2023-01-24T08:10:50;13.10;55.90
63013;DHT22;62113;45.624;11.700;2023-01-24T08:13:16;13.10;56.10
63013;DHT22;62113;45.624;11.700;2023-01-24T08:15:42;13.20;56.30
63013;DHT22;62113;45.624;11.700;2023-01-24T08:18:07;13.20;56.00
63013;DHT22;62113;45.624;11.700;2023-01-24T08:20:33;13.30;55.20
63013;DHT22;62113;45.624;11.700;2023-01-24T08:22:59;13.40;54.80
63013;DHT22;62113;45.624;11.700;2023-01-24T08:25:26;13.50;55.20
63013;DHT22;62113;45.624;11.700;2023-01-24T08:27:52;13.70;54.90
63013;DHT22;62113;45.624;11.700;2023-01-24T08:30:18;13.80;54.50
63013;DHT22;62113;45.624;11.700;2023-01-24T08:32:43;13.90;54.60
63013;DHT22;62113;45.624;11.700;2023-01-24T08:35:09;14.00;53.50
63013;DHT22;62113;45.624;11.700;2023-01-24T08:37:35;14.10;53.50
63013;DHT22;62113;45.624;11.700;2023-01-24T08:40:00;14.20;53.10
63013;DHT22;62113;45.624;11.700;2023-01-24T08:42:26;14.30;52.90
63013;DHT22;62113;45.624;11.700;2023-01-24T08:44:52;14.50;52.90
63013;DHT22;62113;45.624;11.700;2023-01-24T08:47:18;14.60;53.20
63013;DHT22;62113;45.624;11.700;2023-01-24T08:49:43;14.70;53.00
63013;DHT22;62113;45.624;11.700;2023-01-24T08:52:09;14.90;52.50
63013;DHT22;62113;45.624;11.700;2023-01-24T08:54:35;15.00;52.50
63013;DHT22;62113;45.624;11.700;2023-01-24T08:57:04;15.10;52.70
63013;DHT22;62113;45.624;11.700;2023-01-24T08:59:32;15.20;52.60
63013;DHT22;62113;45.624;11.700;2023-01-24T09:01:57;15.30;52.40
63013;DHT22;62113;45.624;11.700;2023-01-24T09:04:23;15.30;53.20
63013;DHT22;62113;45.624;11.700;2023-01-24T09:06:52;15.40;52.00
63013;DHT22;62113;45.624;11.700;2023-01-24T09:09:18;15.50;52.40
63013;DHT22;62113;45.624;11.700;2023-01-24T09:11:43;15.60;51.60
63013;DHT22;62113;45.624;11.700;2023-01-24T09:14:09;15.70;51.70
63013;DHT22;62113;45.624;11.700;2023-01-24T09:16:35;15.70;51.90
63013;DHT22;62113;45.624;11.700;2023-01-24T09:19:00;15.80;52.40
63013;DHT22;62113;45.624;11.700;2023-01-24T09:21:26;16.00;50.90
63013;DHT22;62113;45.624;11.700;2023-01-24T09:23:55;16.00;51.30
63013;DHT22;62113;45.624;11.700;2023-01-24T09:26:21;16.20;50.70
63013;DHT22;62113;45.624;11.700;2023-01-24T09:28:47;16.30;50.50
63013;DHT22;62113;45.624;11.700;2023-01-24T09:31:12;16.40;49.80
63013;DHT22;62113;45.624;11.700;2023-01-24T09:33:38;16.50;49.10
63013;DHT22;62113;45.624;11.700;2023-01-24T09:36:04;16.60;50.00
63013;DHT22;62113;45.624;11.700;2023-01-24T09:38:31;16.50;47.30
63013;DHT22;62113;45.624;11.700;2023-01-24T09:41:03;16.40;48.20
63013;DHT22;62113;45.624;11.700;2023-01-24T09:46:27;16.70;48.90
63013;DHT22;62113;45.624;11.700;2023-01-24T09:51:39;17.20;45.30
63013;DHT22;62113;45.624;11.700;2023-01-24T09:54:09;17.50;44.70
63013;DHT22;62113;45.624;11.700;2023-01-24T09:56:41;17.90;44.20
63013;DHT22;62113;45.624;11.700;2023-01-24T10:01:40;18.60;44.80
63013;DHT22;62113;45.624;11.700;2023-01-24T10:04:22;18.60;43.70
63013;DHT22;62113;45.624;11.700;2023-01-24T10:06:57;18.50;43.80
63013;DHT22;62113;45.624;11.700;2023-01-24T10:09:59;18.50;43.60
63013;DHT22;62113;45.624;11.700;2023-01-24T10:31:13;17.80;43.10
63013;DHT22;62113;45.624;11.700;2023-01-24T10:33:48;17.50;43.10
63013;DHT22;62113;45.624;11.700;2023-01-24T10:36:25;17.10;42.70
63013;DHT22;62113;45.624;11.700;2023-01-24T10:38:55;16.70;43.50
63013;DHT22;62113;45.624;11.700;2023-01-24T10:41:23;16.50;44.10
63013;DHT22;62113;45.624;11.700;2023-01-24T10:44:12;16.50;44.20
63013;DHT22;62113;45.624;11.700;2023-01-24T10:49:58;16.70;44.90
63013;DHT22;62113;45.624;11.700;2023-01-24T10:52:24;17.30;42.80
63013;DHT22;62113;45.624;11.700;2023-01-24T10:54:56;17.40;43.00
63013;DHT22;62113;45.624;11.700;2023-01-24T11:03:03;16.80;42.50
63013;DHT22;62113;45.624;11.700;2023-01-24T11:05:50;16.60;43.50
63013;DHT22;62113;45.624;11.700;2023-01-24T11:08:23;16.50;44.20
63013;DHT22;62113;45.624;11.700;2023-01-24T11:10:54;16.50;44.80
63013;DHT22;62113;45.624;11.700;2023-01-24T11:13:28;16.60;45.10
63013;DHT22;62113;45.624;11.700;2023-01-24T11:16:03;16.70;44.70
63013;DHT22;62113;45.624;11.700;2023-01-24T11:18:31;16.70;44.80
63013;DHT22;62113;45.624;11.700;2023-01-24T11:21:13;16.50;42.50
63013;DHT22;62113;45.624;11.700;2023-01-24T11:23:40;16.20;43.10
63013;DHT22;62113;45.624;11.700;2023-01-24T11:26:21;16.20;44.00
63013;DHT22;62113;45.624;11.700;2023-01-24T11:28:59;16.20;45.00
63013;DHT22;62113;45.624;11.700;2023-01-24T11:31:47;16.20;45.30
63013;DHT22;62113;45.624;11.700;2023-01-24T11:40:16;16.80;46.50
63013;DHT22;62113;45.624;11.700;2023-01-24T11:46:05;17.20;45.70
63013;DHT22;62113;45.624;11.700;2023-01-24T11:48:40;17.30;45.80
63013;DHT22;62113;45.624;11.700;2023-01-24T12:11:01;17.10;43.20
63013;DHT22;62113;45.624;11.700;2023-01-24T12:21:18;16.50;43.50
63013;DHT22;62113;45.624;11.700;2023-01-24T12:26:21;16.00;44.20
63013;DHT22;62113;45.624;11.700;2023-01-24T12:29:00;15.80;44.80
63013;DHT22;62113;45.624;11.700;2023-01-24T12:36:56;15.40;45.20
63013;DHT22;62113;45.624;11.700;2023-01-24T12:39:41;15.40;45.20
63013;DHT22;62113;45.624;11.700;2023-01-24T12:42:16;15.50;45.60
63013;DHT22;62113;45.624;11.700;2023-01-24T12:45:00;15.60;45.10
63013;DHT22;62113;45.624;11.700;2023-01-24T12:47:37;15.50;43.40
63013;DHT22;62113;45.624;11.700;2023-01-24T12:50:26;15.40;44.50
63013;DHT22;62113;45.624;11.700;2023-01-24T12:53:32;15.50;44.70
63013;DHT22;62113;45.624;11.700;2023-01-24T12:56:05;15.60;45.10
63013;DHT22;62113;45.624;11.700;2023-01-24T12:58:37;15.70;45.20
63013;DHT22;62113;45.624;11.700;2023-01-24T13:09:48;15.40;43.80
63013;DHT22;62113;45.624;11.700;2023-01-24T13:12:21;15.40;44.40
63013;DHT22;62113;45.624;11.700;2023-01-24T13:14:58;15.30;44.30
63013;DHT22;62113;45.624;11.700;2023-01-24T13:29:03;15.10;45.00
63013;DHT22;62113;45.624;11.700;2023-01-24T13:31:50;15.10;44.70
63013;DHT22;62113;45.624;11.700;2023-01-24T13:34:21;15.00;44.30
63013;DHT22;62113;45.624;11.700;2023-01-24T13:36:51;14.90;44.40
63013;DHT22;62113;45.624;11.700;2023-01-24T13:39:40;14.90;44.20
63013;DHT22;62113;45.624;11.700;2023-01-24T13:44:38;14.70;44.20
63013;DHT22;62113;45.624;11.700;2023-01-24T13:47:26;14.60;44.00
63013;DHT22;62113;45.624;11.700;2023-01-24T13:50:02;14.50;44.80
63013;DHT22;62113;45.624;11.700;2023-01-24T13:52:37;14.30;45.40
63013;DHT22;62113;45.624;11.700;2023-01-24T14:00:49;14.30;46.80
63013;DHT22;62113;45.624;11.700;2023-01-24T14:03:24;14.20;47.30
63013;DHT22;62113;45.624;11.700;2023-01-24T14:10:51;14.20;47.10
63013;DHT22;62113;45.624;11.700;2023-01-24T14:22:19;14.10;47.80
63013;DHT22;62113;45.624;11.700;2023-01-24T14:24:58;14.10;48.00
63013;DHT22;62113;45.624;11.700;2023-01-24T14:27:58;14.10;48.20
63013;DHT22;62113;45.624;11.700;2023-01-24T14:30:33;14.10;48.10
63013;DHT22;62113;45.624;11.700;2023-01-24T14:33:27;14.00;48.10
63013;DHT22;62113;45.624;11.700;2023-01-24T14:36:20;14.00;48.30
63013;DHT22;62113;45.624;11.700;2023-01-24T14:38:47;14.00;48.60
63013;DHT22;62113;45.624;11.700;2023-01-24T14:41:20;13.90;48.60
63013;DHT22;62113;45.624;11.700;2023-01-24T14:43:47;13.90;49.10
63013;DHT22;62113;45.624;11.700;2023-01-24T14:46:21;13.80;49.00
63013;DHT22;62113;45.624;11.700;2023-01-24T14:48:48;13.80;49.20
63013;DHT22;62113;45.624;11.700;2023-01-24T14:51:17;13.70;49.40
63013;DHT22;62113;45.624;11.700;2023-01-24T14:53:49;13.80;49.50
63013;DHT22;62113;45.624;11.700;2023-01-24T14:56:15;13.70;49.50
63013;DHT22;62113;45.624;11.700;2023-01-24T14:58:41;13.70;49.80
63013;DHT22;62113;45.624;11.700;2023-01-24T15:01:28;13.60;49.80
63013;DHT22;62113;45.624;11.700;2023-01-24T15:03:56;13.50;50.20
63013;DHT22;62113;45.624;11.700;2023-01-24T15:06:22;13.50;50.40
63013;DHT22;62113;45.624;11.700;2023-01-24T15:08:56;13.50;50.40
63013;DHT22;62113;45.624;11.700;2023-01-24T15:11:31;13.40;50.60
63013;DHT22;62113;45.624;11.700;2023-01-24T15:14:22;13.30;51.30
63013;DHT22;62113;45.624;11.700;2023-01-24T15:16:51;13.30;51.80
63013;DHT22;62113;45.624;11.700;2023-01-24T15:19:24;13.20;51.70
63013;DHT22;62113;45.624;11.700;2023-01-24T15:21:51;13.20;51.40
63013;DHT22;62113;45.624;11.700;2023-01-24T15:24:27;13.20;51.50
63013;DHT22;62113;45.624;11.700;2023-01-24T15:26:55;13.00;51.60
63013;DHT22;62113;45.624;11.700;2023-01-24T15:32:01;13.00;52.00
63013;DHT22;62113;45.624;11.700;2023-01-24T15:34:28;12.90;52.20
63013;DHT22;62113;45.624;11.700;2023-01-24T15:36:59;12.80;52.50
63013;DHT22;62113;45.624;11.700;2023-01-24T15:39:25;12.80;52.40
63013;DHT22;62113;45.624;11.700;2023-01-24T15:41:51;12.80;52.60
63013;DHT22;62113;45.624;11.700;2023-01-24T15:44:45;12.80;53.50
63013;DHT22;62113;45.624;11.700;2023-01-24T15:47:21;12.80;54.00
63013;DHT22;62113;45.624;11.700;2023-01-24T15:53:31;12.70;53.90
63013;DHT22;62113;45.624;11.700;2023-01-24T15:56:01;12.70;53.70
63013;DHT22;62113;45.624;11.700;2023-01-24T15:58:28;12.60;55.00
63013;DHT22;62113;45.624;11.700;2023-01-24T16:00:56;12.60;54.10
63013;DHT22;62113;45.624;11.700;2023-01-24T16:03:22;12.50;54.10
63013;DHT22;62113;45.624;11.700;2023-01-24T16:05:47;12.50;54.30
63013;DHT22;62113;45.624;11.700;2023-01-24T16:08:13;12.40;54.40
63013;DHT22;62113;45.624;11.700;2023-01-24T16:10:40;12.40;55.40
63013;DHT22;62113;45.624;11.700;2023-01-24T16:13:06;12.40;55.60
63013;DHT22;62113;45.624;11.700;2023-01-24T16:15:36;12.40;55.30
63013;DHT22;62113;45.624;11.700;2023-01-24T16:18:02;12.40;55.30
63013;DHT22;62113;45.624;11.700;2023-01-24T16:20:27;12.40;55.60
63013;DHT22;62113;45.624;11.700;2023-01-24T16:22:54;12.40;55.70
63013;DHT22;62113;45.624;11.700;2023-01-24T16:25:20;12.40;55.60
63013;DHT22;62113;45.624;11.700;2023-01-24T16:27:48;12.40;56.60
63013;DHT22;62113;45.624;11.700;2023-01-24T16:30:21;12.30;56.30
63013;DHT22;62113;45.624;11.700;2023-01-24T16:32:47;12.30;56.40
63013;DHT22;62113;45.624;11.700;2023-01-24T16:35:13;12.30;56.40
63013;DHT22;62113;45.624;11.700;2023-01-24T16:37:39;12.30;56.20
63013;DHT22;62113;45.624;11.700;2023-01-24T16:40:05;12.30;56.40
63013;DHT22;62113;45.624;11.700;2023-01-24T16:42:31;12.30;56.20
63013;DHT22;62113;45.624;11.700;2023-01-24T16:44:58;12.30;56.10
63013;DHT22;62113;45.624;11.700;2023-01-24T16:47:25;12.30;57.10
63013;DHT22;62113;45.624;11.700;2023-01-24T16:49:52;12.20;57.00
63013;DHT22;62113;45.624;11.700;2023-01-24T16:52:18;12.20;57.10
63013;DHT22;62113;45.624;11.700;2023-01-24T16:54:43;12.20;57.30
63013;DHT22;62113;45.624;11.700;2023-01-24T16:57:09;12.20;57.00
63013;DHT22;62113;45.624;11.700;2023-01-24T16:59:34;12.20;57.60
63013;DHT22;62113;45.624;11.700;2023-01-24T17:02:00;12.20;57.30
63013;DHT22;62113;45.624;11.700;2023-01-24T17:04:26;12.20;57.90
63013;DHT22;62113;45.624;11.700;2023-01-24T17:06:51;12.20;57.50
63013;DHT22;62113;45.624;11.700;2023-01-24T17:09:17;12.20;57.80
63013;DHT22;62113;45.624;11.700;2023-01-24T17:11:42;12.20;58.30
63013;DHT22;62113;45.624;11.700;2023-01-24T17:14:08;12.20;57.90
63013;DHT22;62113;45.624;11.700;2023-01-24T17:16:34;12.20;58.10
63013;DHT22;62113;45.624;11.700;2023-01-24T17:19:01;12.20;58.20
63013;DHT22;62113;45.624;11.700;2023-01-24T17:21:27;12.20;58.40
63013;DHT22;62113;45.624;11.700;2023-01-24T17:23:52;12.10;59.10
63013;DHT22;62113;45.624;11.700;2023-01-24T17:26:18;12.10;59.80
63013;DHT22;62113;45.624;11.700;2023-01-24T17:28:44;12.10;59.00
63013;DHT22;62113;45.624;11.700;2023-01-24T17:31:15;12.10;58.80
63013;DHT22;62113;45.624;11.700;2023-01-24T17:33:41;12.10;59.50
63013;DHT22;62113;45.624;11.700;2023-01-24T17:36:07;12.10;59.60
63013;DHT22;62113;45.624;11.700;2023-01-24T17:38:34;12.10;59.40
63013;DHT22;62113;45.624;11.700;2023-01-24T17:41:00;12.00;59.40
63013;DHT22;62113;45.624;11.700;2023-01-24T17:43:26;12.00;60.10
63013;DHT22;62113;45.624;11.700;2023-01-24T17:45:56;12.00;60.00
63013;DHT22;62113;45.624;11.700;2023-01-24T17:48:22;12.00;61.20
63013;DHT22;62113;45.624;11.700;2023-01-24T17:50:48;11.90;61.80
63013;DHT22;62113;45.624;11.700;2023-01-24T17:53:15;11.80;61.80
63013;DHT22;62113;45.624;11.700;2023-01-24T17:55:40;11.70;62.50
63013;DHT22;62113;45.624;11.700;2023-01-24T17:58:06;11.60;62.50
63013;DHT22;62113;45.624;11.700;2023-01-24T18:00:32;11.50;62.50
63013;DHT22;62113;45.624;11.700;2023-01-24T18:02:57;11.50;62.80